createdAt,value
2023-04-02T00:01:02.385Z,100588.00
2023-04-02T00:03:45.170Z,100589.00
2023-04-02T00:06:40.665Z,100606.00
2023-04-02T00:09:14.473Z,100600.00
2023-04-02T00:11:54.950Z,100601.00
2023-04-02T00:14:25.026Z,100607.00
2023-04-02T00:16:57.374Z,100597.00
2023-04-02T00:20:03.308Z,100615.00
2023-04-02T00:22:34.438Z,100618.00
2023-04-02T00:25:13.375Z,100618.00
2023-04-02T00:27:42.183Z,100639.00
2023-04-02T00:30:13.520Z,100631.00
2023-04-02T00:32:42.176Z,100623.00
2023-04-02T00:35:31.333Z,100645.00
2023-04-02T00:37:58.741Z,100637.00
2023-04-02T00:40:32.498Z,100639.00
2023-04-02T00:43:05.296Z,100658.00
2023-04-02T00:45:39.957Z,100659.00
2023-04-02T00:48:32.831Z,100661.00
2023-04-02T00:51:25.657Z,100665.00
2023-04-02T00:53:58.361Z,100673.00
2023-04-02T00:56:46.244Z,100667.00
2023-04-02T00:59:36.147Z,100675.00
2023-04-02T01:02:17.779Z,100683.00
2023-04-02T01:05:05.738Z,100692.00
2023-04-02T01:08:12.781Z,100698.00
2023-04-02T01:11:05.010Z,100709.00
2023-04-02T01:13:41.680Z,100696.00
2023-04-02T01:16:20.952Z,100699.00
2023-04-02T01:19:34.131Z,100711.00
2023-04-02T01:22:23.380Z,100716.00
2023-04-02T01:25:00.823Z,100725.00
2023-04-02T01:27:46.789Z,100717.00
2023-04-02T01:30:17.601Z,100729.00
2023-04-02T01:32:46.085Z,100723.00
2023-04-02T01:35:14.357Z,100727.00
2023-04-02T01:37:47.104Z,100745.00
2023-04-02T01:40:42.655Z,100747.00
2023-04-02T01:43:29.720Z,100752.00
2023-04-02T01:46:07.066Z,100752.00
2023-04-02T01:48:34.822Z,100760.00
2023-04-02T01:51:07.832Z,100756.00
2023-04-02T01:53:35.457Z,100777.00
2023-04-02T01:56:05.016Z,100776.00
2023-04-02T01:58:34.418Z,100772.00
2023-04-02T02:01:01.882Z,100769.00
2023-04-02T02:03:32.444Z,100788.00
2023-04-02T02:06:01.150Z,100796.00
2023-04-02T02:08:54.799Z,100792.00
2023-04-02T02:11:27.715Z,100784.00
2023-04-02T02:14:13.241Z,100803.00
2023-04-02T02:16:44.548Z,100797.00
2023-04-02T02:19:39.820Z,100811.00
2023-04-02T02:22:32.782Z,100827.00
2023-04-02T02:25:07.123Z,100822.00
2023-04-02T02:28:10.552Z,100830.00
2023-04-02T02:31:05.916Z,100831.00
2023-04-02T02:33:39.151Z,100846.00
2023-04-02T02:36:18.047Z,100862.00
2023-04-02T02:39:05.997Z,100855.00
2023-04-02T02:41:42.120Z,100855.00
2023-04-02T02:44:09.623Z,100865.00
2023-04-02T02:47:03.136Z,100859.00
2023-04-02T02:49:50.077Z,100865.00
2023-04-02T02:52:26.574Z,100877.00
2023-04-02T02:55:01.360Z,100887.00
2023-04-02T02:57:39.462Z,100884.00
2023-04-02T03:00:12.370Z,100882.00
2023-04-02T03:02:42.810Z,100907.00
2023-04-02T03:05:17.889Z,100905.00
2023-04-02T03:07:45.191Z,100912.00
2023-04-02T03:10:43.505Z,100901.00
2023-04-02T03:13:23.915Z,100913.00
2023-04-02T03:16:09.763Z,100939.00
2023-04-02T03:19:20.298Z,100943.00
2023-04-02T03:22:03.389Z,100948.00
2023-04-02T03:24:47.814Z,100950.00
2023-04-02T03:27:33.174Z,100952.00
2023-04-02T03:30:27.849Z,100959.00
2023-04-02T03:33:15.230Z,100953.00
2023-04-02T03:35:58.323Z,100962.00
2023-04-02T03:38:36.598Z,100960.00
2023-04-02T03:41:39.432Z,100978.00
2023-04-02T03:44:31.026Z,100976.00
2023-04-02T03:47:25.222Z,100993.00
2023-04-02T03:50:25.564Z,100994.00
2023-04-02T03:52:53.493Z,101001.00
2023-04-02T03:55:29.202Z,101010.00
2023-04-02T03:58:19.281Z,101017.00
2023-04-02T04:01:03.838Z,101025.00
2023-04-02T04:03:49.881Z,101017.00
2023-04-02T04:06:27.734Z,101037.00
2023-04-02T04:09:20.485Z,101054.00
2023-04-02T04:11:55.422Z,101049.00
2023-04-02T04:14:53.017Z,101064.00
2023-04-02T04:18:02.586Z,101072.00
2023-04-02T04:20:47.383Z,101074.00
2023-04-02T04:23:30.190Z,101074.00
2023-04-02T04:26:05.712Z,101090.00
2023-04-02T04:29:18.954Z,101088.00
2023-04-02T04:31:55.734Z,101086.00
2023-04-02T04:34:39.026Z,101087.00
2023-04-02T04:37:08.000Z,101100.00
2023-04-02T04:39:54.789Z,101089.00
2023-04-02T04:42:29.516Z,101106.00
2023-04-02T04:45:35.445Z,101120.00
2023-04-02T04:48:52.532Z,101117.00
2023-04-02T04:51:37.783Z,101124.00
2023-04-02T04:54:05.842Z,101123.00
2023-04-02T04:56:34.115Z,101134.00
2023-04-02T04:59:07.437Z,101140.00
2023-04-02T05:01:39.257Z,101158.00
2023-04-02T05:04:26.176Z,101165.00
2023-04-02T05:07:14.719Z,101171.00
2023-04-02T05:10:14.037Z,101181.00
2023-04-02T05:13:05.872Z,101184.00
2023-04-02T05:15:46.846Z,101197.00
2023-04-02T05:18:40.191Z,101208.00
2023-04-02T05:21:29.286Z,101201.00
2023-04-02T05:24:39.636Z,101221.00
2023-04-02T05:28:06.626Z,101225.00
2023-04-02T05:31:03.319Z,101234.00
2023-04-02T05:33:34.336Z,101234.00
2023-04-02T05:36:12.732Z,101245.00
2023-04-02T05:38:47.906Z,101247.00
2023-04-02T05:41:38.618Z,101239.00
2023-04-02T05:44:27.358Z,101259.00
2023-04-02T05:47:23.469Z,101263.00
2023-04-02T05:50:09.065Z,101266.00
2023-04-02T05:53:09.127Z,101264.00
2023-04-02T05:56:00.863Z,101265.00
2023-04-02T05:59:11.655Z,101291.00
2023-04-02T06:01:53.253Z,101265.00
2023-04-02T06:04:47.994Z,101293.00
2023-04-02T06:07:22.586Z,101287.00
2023-04-02T06:10:17.301Z,101306.00
2023-04-02T06:12:56.024Z,101309.00
2023-04-02T06:15:25.823Z,101297.00
2023-04-02T06:18:05.449Z,101318.00
2023-04-02T06:20:34.327Z,101346.00
2023-04-02T06:23:20.998Z,101332.00
2023-04-02T06:26:39.837Z,101344.00
2023-04-02T06:29:13.821Z,101348.00
2023-04-02T06:32:00.151Z,101358.00
2023-04-02T06:34:30.321Z,101351.00
2023-04-02T06:37:08.817Z,101362.00
2023-04-02T06:39:36.464Z,101384.00
2023-04-02T06:42:25.200Z,101394.00
2023-04-02T06:44:52.991Z,101390.00
2023-04-02T06:47:43.595Z,101401.00
2023-04-02T06:50:36.373Z,101402.00
2023-04-02T06:53:11.955Z,101409.00
2023-04-02T06:56:03.622Z,101415.00
2023-04-02T06:58:31.391Z,101407.00
2023-04-02T07:00:59.360Z,101402.00
2023-04-02T07:03:31.834Z,101424.00
2023-04-02T07:06:02.881Z,101424.00
2023-04-02T07:08:30.493Z,101446.00
2023-04-02T07:10:58.715Z,101445.00
2023-04-02T07:13:27.286Z,101451.00
2023-04-02T07:15:56.592Z,101463.00
2023-04-02T07:18:31.844Z,101457.00
2023-04-02T07:21:00.532Z,101465.00
2023-04-02T07:23:46.908Z,101481.00
2023-04-02T07:26:30.439Z,101464.00
2023-04-02T07:28:58.017Z,101490.00
2023-04-02T07:31:28.664Z,101474.00
2023-04-02T07:34:00.490Z,101484.00
2023-04-02T07:36:31.129Z,101491.00
2023-04-02T07:38:58.985Z,101498.00
2023-04-02T07:41:27.733Z,101502.00
2023-04-02T07:43:55.373Z,101512.00
2023-04-02T07:46:26.272Z,101516.00
2023-04-02T07:48:55.655Z,101508.00
2023-04-02T07:51:26.849Z,101531.00
2023-04-02T07:53:57.170Z,101513.00
2023-04-02T07:56:26.352Z,101534.00
2023-04-02T07:58:54.441Z,101540.00
2023-04-02T08:01:26.885Z,101538.00
2023-04-02T08:03:57.083Z,101538.00
2023-04-02T08:06:25.778Z,101554.00
2023-04-02T08:08:58.294Z,101557.00
2023-04-02T08:11:26.071Z,101559.00
2023-04-02T08:13:53.680Z,101561.00
2023-04-02T08:16:21.516Z,101582.00
2023-04-02T08:18:51.749Z,101585.00
2023-04-02T08:21:19.678Z,101580.00
2023-04-02T08:23:47.088Z,101566.00
2023-04-02T08:26:19.094Z,101577.00
2023-04-02T08:28:49.275Z,101578.00
2023-04-02T08:31:18.136Z,101593.00
2023-04-02T08:33:48.021Z,101590.00
2023-04-02T08:36:32.422Z,101605.00
2023-04-02T08:39:02.246Z,101606.00
2023-04-02T08:41:41.797Z,101628.00
2023-04-02T08:44:51.343Z,101627.00
2023-04-02T08:47:26.245Z,101626.00
2023-04-02T08:49:59.340Z,101617.00
2023-04-02T08:52:39.344Z,101619.00
2023-04-02T08:55:45.011Z,101616.00
2023-04-02T08:58:37.459Z,101646.00
2023-04-02T09:01:08.541Z,101651.00
2023-04-02T09:03:43.769Z,101645.00
2023-04-02T09:06:19.085Z,101659.00
2023-04-02T09:08:51.772Z,101666.00
2023-04-02T09:11:23.714Z,101678.00
2023-04-02T09:14:00.726Z,101684.00
2023-04-02T09:17:02.500Z,101695.00
2023-04-02T09:19:45.540Z,101676.00
2023-04-02T09:22:28.121Z,101703.00
2023-04-02T09:25:07.269Z,101710.00
2023-04-02T09:27:38.979Z,101707.00
2023-04-02T09:30:54.408Z,101711.00
2023-04-02T09:33:49.537Z,101726.00
2023-04-02T09:36:41.854Z,101715.00
2023-04-02T09:39:24.218Z,101715.00
2023-04-02T09:42:05.075Z,101733.00
2023-04-02T09:44:34.923Z,101734.00
2023-04-02T09:47:07.710Z,101717.00
2023-04-02T09:49:42.301Z,101737.00
2023-04-02T09:52:30.324Z,101741.00
2023-04-02T09:55:31.244Z,101754.00
2023-04-02T09:58:28.969Z,101752.00
2023-04-02T10:00:57.180Z,101761.00
2023-04-02T10:03:33.689Z,101748.00
2023-04-02T10:06:17.482Z,101772.00
2023-04-02T10:08:49.095Z,101772.00
2023-04-02T10:11:46.277Z,101772.00
2023-04-02T10:14:25.151Z,101764.00
2023-04-02T10:17:38.083Z,101777.00
2023-04-02T10:20:27.568Z,101803.00
2023-04-02T10:22:56.553Z,101782.00
2023-04-02T10:25:32.579Z,101795.00
2023-04-02T10:28:31.493Z,101810.00
2023-04-02T10:31:37.452Z,101820.00
2023-04-02T10:34:37.954Z,101809.00
2023-04-02T10:37:53.034Z,101831.00
2023-04-02T10:40:46.763Z,101825.00
2023-04-02T10:44:20.151Z,101845.00
2023-04-02T10:47:33.586Z,101844.00
2023-04-02T10:50:21.976Z,101842.00
2023-04-02T10:54:03.504Z,101862.00
2023-04-02T10:56:41.012Z,101865.00
2023-04-02T10:59:19.913Z,101863.00
2023-04-02T11:01:52.119Z,101870.00
2023-04-02T11:04:43.599Z,101870.00
2023-04-02T11:07:53.371Z,101846.00
2023-04-02T11:10:34.838Z,101863.00
2023-04-02T11:13:57.339Z,101857.00
2023-04-02T11:16:27.502Z,101862.00
2023-04-02T11:19:23.144Z,101871.00
2023-04-02T11:22:08.136Z,101878.00
2023-04-02T11:24:48.867Z,101885.00
2023-04-02T11:27:25.642Z,101882.00
2023-04-02T11:30:18.498Z,101892.00
2023-04-02T11:32:50.071Z,101876.00
2023-04-02T11:35:33.217Z,101891.00
2023-04-02T11:38:23.808Z,101900.00
2023-04-02T11:41:01.572Z,101899.00
2023-04-02T11:43:35.787Z,101907.00
2023-04-02T11:46:17.025Z,101917.00
2023-04-02T11:48:45.262Z,101907.00
2023-04-02T11:51:25.300Z,101923.00
2023-04-02T11:53:55.466Z,101920.00
2023-04-02T11:56:30.643Z,101927.00
2023-04-02T11:59:19.202Z,101930.00
2023-04-02T12:02:37.784Z,101939.00
2023-04-02T12:05:19.034Z,101951.00
2023-04-02T12:08:15.361Z,101948.00
2023-04-02T12:11:04.846Z,101945.00
2023-04-02T12:14:00.430Z,101952.00
2023-04-02T12:16:33.635Z,101961.00
2023-04-02T12:19:02.189Z,101951.00
2023-04-02T12:21:30.803Z,101962.00
2023-04-02T12:24:03.581Z,101963.00
2023-04-02T12:26:40.017Z,101962.00
2023-04-02T12:29:30.283Z,101958.00
2023-04-02T12:32:00.668Z,101963.00
2023-04-02T12:34:31.350Z,101957.00
2023-04-02T12:37:04.947Z,101969.00
2023-04-02T12:39:37.565Z,101981.00
2023-04-02T12:42:27.283Z,101985.00
2023-04-02T12:44:55.172Z,101997.00
2023-04-02T12:47:26.264Z,102007.00
2023-04-02T12:49:57.089Z,101996.00
2023-04-02T12:52:29.580Z,102002.00
2023-04-02T12:55:02.944Z,102012.00
2023-04-02T12:57:30.147Z,101999.00
2023-04-02T13:00:22.645Z,102011.00
2023-04-02T13:03:06.719Z,101999.00
2023-04-02T13:06:04.903Z,102017.00
2023-04-02T13:08:41.780Z,102016.00
2023-04-02T13:11:12.264Z,102030.00
2023-04-02T13:13:44.271Z,102028.00
2023-04-02T13:16:18.096Z,102015.00
2023-04-02T13:18:48.813Z,102015.00
2023-04-02T13:21:29.833Z,102026.00
2023-04-02T13:23:56.966Z,102017.00
2023-04-02T13:26:29.855Z,102040.00
2023-04-02T13:29:36.710Z,102039.00
2023-04-02T13:32:12.088Z,102051.00
2023-04-02T13:34:39.639Z,102048.00
2023-04-02T13:37:12.960Z,102050.00
2023-04-02T13:39:40.588Z,102043.00
2023-04-02T13:42:12.077Z,102048.00
2023-04-02T13:44:40.358Z,102050.00
2023-04-02T13:47:14.046Z,102059.00
2023-04-02T13:49:41.536Z,102054.00
2023-04-02T13:52:17.588Z,102046.00
2023-04-02T13:54:51.701Z,102058.00
2023-04-02T13:57:20.133Z,102059.00
2023-04-02T13:59:47.534Z,102061.00
2023-04-02T14:02:20.724Z,102055.00
2023-04-02T14:05:03.848Z,102053.00
2023-04-02T14:08:02.670Z,102064.00
2023-04-02T14:10:47.752Z,102054.00
2023-04-02T14:13:41.563Z,102047.00
2023-04-02T14:16:58.262Z,102067.00
2023-04-02T14:20:07.368Z,102067.00
2023-04-02T14:22:52.970Z,102074.00
2023-04-02T14:26:01.156Z,102093.00
2023-04-02T14:28:43.570Z,102090.00
2023-04-02T14:31:55.026Z,102092.00
2023-04-02T14:34:46.724Z,102104.00
2023-04-02T14:37:52.905Z,102094.00
2023-04-02T14:40:39.919Z,102099.00
2023-04-02T14:43:19.189Z,102097.00
2023-04-02T14:46:07.422Z,102090.00
2023-04-02T14:49:04.085Z,102080.00
2023-04-02T14:51:38.985Z,102082.00
2023-04-02T14:54:15.612Z,102089.00
2023-04-02T14:56:54.824Z,102091.00
2023-04-02T14:59:34.487Z,102082.00
2023-04-02T15:02:13.809Z,102106.00
2023-04-02T15:05:01.422Z,102112.00
2023-04-02T15:07:40.201Z,102109.00
2023-04-02T15:10:33.513Z,102110.00
2023-04-02T15:13:11.765Z,102107.00
2023-04-02T15:15:53.642Z,102097.00
2023-04-02T15:18:21.077Z,102088.00
2023-04-02T15:21:09.414Z,102092.00
2023-04-02T15:23:56.295Z,102098.00
2023-04-02T15:26:44.398Z,102100.00
2023-04-02T15:29:55.069Z,102112.00
2023-04-02T15:32:34.554Z,102112.00
2023-04-02T15:35:45.850Z,102113.00
2023-04-02T15:38:41.002Z,102102.00
2023-04-02T15:41:23.797Z,102105.00
2023-04-02T15:44:24.916Z,102116.00
2023-04-02T15:47:27.478Z,102134.00
2023-04-02T15:50:34.838Z,102132.00
2023-04-02T15:53:31.441Z,102142.00
2023-04-02T15:56:16.914Z,102147.00
2023-04-02T15:58:56.919Z,102141.00
2023-04-02T16:02:00.941Z,102141.00
2023-04-02T16:05:19.850Z,102134.00
2023-04-02T16:08:11.475Z,102148.00
2023-04-02T16:10:43.187Z,102156.00
2023-04-02T16:13:28.831Z,102155.00
2023-04-02T16:16:26.118Z,102169.00
2023-04-02T16:19:25.787Z,102171.00
2023-04-02T16:22:07.278Z,102164.00
2023-04-02T16:24:34.608Z,102165.00
2023-04-02T16:27:31.800Z,102161.00
2023-04-02T16:30:50.999Z,102161.00
2023-04-02T16:33:37.007Z,102176.00
2023-04-02T16:36:34.488Z,102185.00
2023-04-02T16:39:29.324Z,102190.00
2023-04-02T16:41:56.685Z,102197.00
2023-04-02T16:44:42.117Z,102192.00
2023-04-02T16:47:21.766Z,102202.00
2023-04-02T16:50:18.523Z,102213.00
2023-04-02T16:52:58.802Z,102204.00
2023-04-02T16:55:34.942Z,102206.00
2023-04-02T16:58:26.394Z,102218.00
2023-04-02T17:01:29.308Z,102233.00
2023-04-02T17:04:18.172Z,102222.00
2023-04-02T17:07:06.200Z,102238.00
2023-04-02T17:09:36.173Z,102240.00
2023-04-02T17:12:36.117Z,102243.00
2023-04-02T17:15:35.185Z,102253.00
2023-04-02T17:18:20.193Z,102249.00
2023-04-02T17:20:55.105Z,102245.00
2023-04-02T17:23:23.129Z,102252.00
2023-04-02T17:26:09.347Z,102257.00
2023-04-02T17:28:40.036Z,102265.00
2023-04-02T17:31:27.451Z,102268.00
2023-04-02T17:33:58.056Z,102271.00
2023-04-02T17:37:07.223Z,102285.00
2023-04-02T17:39:52.081Z,102290.00
2023-04-02T17:43:28.191Z,102297.00
2023-04-02T17:46:14.711Z,102303.00
2023-04-02T17:48:48.973Z,102297.00
2023-04-02T17:51:34.710Z,102308.00
2023-04-02T17:54:52.035Z,102316.00
2023-04-02T17:57:34.233Z,102321.00
2023-04-02T18:00:41.595Z,102315.00
2023-04-02T18:03:39.602Z,102321.00
2023-04-02T18:06:39.528Z,102333.00
2023-04-02T18:09:29.163Z,102340.00
2023-04-02T18:12:37.572Z,102338.00
2023-04-02T18:15:50.876Z,102350.00
2023-04-02T18:19:03.588Z,102346.00
2023-04-02T18:22:07.093Z,102360.00
2023-04-02T18:25:22.202Z,102361.00
2023-04-02T18:28:32.727Z,102368.00
2023-04-02T18:31:39.019Z,102381.00
2023-04-02T18:34:45.196Z,102384.00
2023-04-02T18:37:33.669Z,102396.00
2023-04-02T18:40:32.069Z,102392.00
2023-04-02T18:43:43.882Z,102401.00
2023-04-02T18:46:27.635Z,102407.00
2023-04-02T18:49:33.577Z,102398.00
2023-04-02T18:56:04.534Z,102398.00
2023-04-02T18:59:19.375Z,102420.00
2023-04-02T19:01:54.018Z,102419.00
2023-04-02T19:04:31.085Z,102428.00
2023-04-02T19:07:16.646Z,102427.00
2023-04-02T19:10:31.374Z,102429.00
2023-04-02T19:12:58.846Z,102431.00
2023-04-02T19:16:37.625Z,102433.00
2023-04-02T19:23:45.187Z,102457.00
2023-04-02T19:26:23.035Z,102451.00
2023-04-02T19:29:21.574Z,102459.00
2023-04-02T19:32:11.905Z,102461.00
2023-04-02T19:35:27.223Z,102462.00
2023-04-02T19:38:32.759Z,102463.00
2023-04-02T19:41:19.708Z,102469.00
2023-04-02T19:43:47.477Z,102478.00
2023-04-02T19:46:15.641Z,102477.00
2023-04-02T19:49:14.915Z,102471.00
2023-04-02T19:51:42.268Z,102477.00
2023-04-02T19:54:10.287Z,102482.00
2023-04-02T19:56:38.205Z,102471.00
2023-04-02T19:59:17.044Z,102487.00
2023-04-02T20:01:45.519Z,102490.00
2023-04-02T20:04:13.047Z,102497.00
2023-04-02T20:06:40.778Z,102499.00
2023-04-02T20:09:08.944Z,102492.00
2023-04-02T20:11:38.499Z,102498.00
2023-04-02T20:14:06.511Z,102485.00
2023-04-02T20:16:36.111Z,102493.00
2023-04-02T20:19:03.801Z,102498.00
2023-04-02T20:21:38.440Z,102496.00
2023-04-02T20:24:07.964Z,102512.00
2023-04-02T20:26:36.777Z,102515.00
2023-04-02T20:29:05.250Z,102508.00
2023-04-02T20:31:32.797Z,102497.00
2023-04-02T20:34:00.552Z,102515.00
2023-04-02T20:36:28.327Z,102500.00
2023-04-02T20:38:55.817Z,102511.00
2023-04-02T20:41:23.602Z,102517.00
2023-04-02T20:43:50.932Z,102520.00
2023-04-02T20:46:18.361Z,102503.00
2023-04-02T20:48:45.831Z,102516.00
2023-04-02T20:51:17.029Z,102511.00
2023-04-02T20:53:44.474Z,102523.00
2023-04-02T20:56:15.791Z,102520.00
2023-04-02T20:58:44.201Z,102527.00
2023-04-02T21:01:29.948Z,102529.00
2023-04-02T21:04:03.911Z,102535.00
2023-04-02T21:06:35.511Z,102535.00
2023-04-02T21:09:08.347Z,102531.00
2023-04-02T21:11:37.710Z,102541.00
2023-04-02T21:14:05.168Z,102535.00
2023-04-02T21:16:33.336Z,102544.00
2023-04-02T21:19:05.544Z,102553.00
2023-04-02T21:21:34.106Z,102542.00
2023-04-02T21:24:08.085Z,102569.00
2023-04-02T21:26:39.448Z,102559.00
2023-04-02T21:29:07.686Z,102567.00
2023-04-02T21:31:38.931Z,102559.00
2023-04-02T21:34:08.812Z,102565.00
2023-04-02T21:36:41.328Z,102582.00
2023-04-02T21:39:13.196Z,102572.00
2023-04-02T21:41:44.029Z,102574.00
2023-04-02T21:44:15.834Z,102568.00
2023-04-02T21:46:47.316Z,102567.00
2023-04-02T21:49:18.143Z,102568.00
2023-04-02T21:51:47.978Z,102581.00
2023-04-02T21:54:16.266Z,102565.00
2023-04-02T21:56:46.352Z,102574.00
2023-04-02T21:59:16.613Z,102577.00
2023-04-02T22:01:48.778Z,102567.00
2023-04-02T22:04:21.210Z,102581.00
2023-04-02T22:06:48.923Z,102582.00
2023-04-02T22:09:24.031Z,102579.00
2023-04-02T22:11:56.135Z,102572.00
2023-04-02T22:14:23.566Z,102580.00
2023-04-02T22:16:52.163Z,102577.00
2023-04-02T22:19:19.910Z,102592.00
2023-04-02T22:21:47.199Z,102580.00
2023-04-02T22:24:19.023Z,102594.00
2023-04-02T22:26:46.985Z,102580.00
2023-04-02T22:29:17.290Z,102590.00
2023-04-02T22:31:44.944Z,102607.00
2023-04-02T22:34:13.024Z,102602.00
2023-04-02T22:36:40.432Z,102594.00
2023-04-02T22:39:12.686Z,102614.00
2023-04-02T22:41:40.057Z,102609.00
2023-04-02T22:44:07.487Z,102610.00
2023-04-02T22:46:35.166Z,102616.00
2023-04-02T22:49:03.648Z,102628.00
2023-04-02T22:51:31.394Z,102627.00
2023-04-02T22:53:58.781Z,102622.00
2023-04-02T22:56:32.410Z,102608.00
2023-04-02T22:59:00.389Z,102626.00
2023-04-02T23:01:33.595Z,102630.00
2023-04-02T23:04:01.661Z,102618.00
2023-04-02T23:06:29.687Z,102612.00
2023-04-02T23:08:57.039Z,102624.00
2023-04-02T23:11:27.969Z,102623.00
2023-04-02T23:13:58.070Z,102624.00
2023-04-02T23:16:29.004Z,102620.00
2023-04-02T23:18:57.888Z,102611.00
2023-04-02T23:21:27.061Z,102611.00
2023-04-02T23:23:54.764Z,102603.00
2023-04-02T23:26:31.563Z,102608.00
2023-04-02T23:29:00.803Z,102620.00
2023-04-02T23:31:28.726Z,102626.00
2023-04-02T23:33:56.077Z,102605.00
2023-04-02T23:36:27.840Z,102620.00
2023-04-02T23:38:59.791Z,102610.00
2023-04-02T23:41:29.317Z,102618.00
2023-04-02T23:43:58.739Z,102615.00
2023-04-02T23:46:26.659Z,102619.00
2023-04-02T23:48:55.847Z,102618.00
2023-04-02T23:51:24.506Z,102618.00
2023-04-02T23:53:54.003Z,102613.00
2023-04-02T23:56:22.491Z,102632.00
2023-04-02T23:58:51.198Z,102619.00
